St Catherine's Point, United Kingdom
Current Conditions -  °F | °C
As of 4:50 PM on Friday 31 Oct 2014 (Local Time) from EGHI Reporting Station
Clear Clear  
Wind Chill: 59°   Ceiling: Unl
Heat Index: 59°   Visibility: 6mi
Dew Point: 55°   Wind: 5mph
Humidity: 88%   Direction: 130°SE
Pressure: 29.97"   Gusts: NA
Location:  50.58°N, 1.3°W
Report Text: EGHI 311650Z 13004KT 100V160 CAVOK 15/13 Q1015
Loading
Personal Weather Stations






























Interactive Weather Map
Tropical Storm Tracking
New forecast layout! Learn more

10-Day Weather Forecast

Advertisements
Track Severe Weather on mobile